Post Lake, Wisconsin
Current Conditions -  °F | °C
As of 2:55 AM on Wednesday 22 Oct 2014 (Local Time) from KAIG Reporting Station
Clear Clear  
Wind Chill: 31°   Ceiling: Unl
Heat Index: 31°   Visibility: 10mi
Dew Point: 29°   Wind: 0mph
Humidity: 95%   Direction: NA
Pressure: 30.31"   Gusts: NA
Location:  45.4353°N, 89.1485°W
Report Text: KAIG 220755Z AUTO 00000KT 10SM CLR M01/M01 A3031 RMK AO2 T10071014
Loading
Personal Weather Stations






























Interactive Weather Map
Tropical Storm Tracking
New forecast layout! Learn more

10-Day Weather Forecast

Advertisements
Track Severe Weather on mobile